Time;durP1;ratioP1;P1;durP2;ratioP2;P2;SDS_P1;SDS_P2;PMS_P1;PMS_P2;Temp;Humidity;BMP_temperature;BMP_pressure;BME280_temperature;BME280_humidity;BME280_pressure;Samples;Min_cycle;Max_cycle;Signal;HPM_P1;HPM_P2
2022/09/29 00:00:44;;;;;;;2.90;2.43;;;9.30;99.90;;;;;;5053779;28;20731;-62
2022/09/29 00:03:11;;;;;;;4.43;2.30;;;9.40;99.90;;;;;;5053864;28;20216;-63
2022/09/29 00:05:38;;;;;;;5.17;2.97;;;9.60;99.90;;;;;;5053083;28;20213;-64
2022/09/29 00:08:04;;;;;;;5.67;2.87;;;9.70;99.90;;;;;;5052580;28;20584;-63
2022/09/29 00:10:31;;;;;;;5.33;2.47;;;9.70;99.90;;;;;;5053439;28;20240;-63
2022/09/29 00:12:59;;;;;;;5.27;3.27;;;9.80;99.90;;;;;;5054686;28;20216;-64
2022/09/29 00:15:26;;;;;;;3.10;2.43;;;9.80;99.90;;;;;;5053718;28;20202;-64
2022/09/29 00:17:53;;;;;;;3.83;2.33;;;9.90;99.90;;;;;;5053959;28;20588;-63
2022/09/29 00:20:19;;;;;;;5.90;2.60;;;9.90;99.90;;;;;;5054605;28;20221;-62
2022/09/29 00:22:50;;;;;;;3.30;2.10;;;9.80;99.90;;;;;;5055239;28;20221;-63
2022/09/29 00:25:17;;;;;;;3.60;2.30;;;9.80;99.90;;;;;;5056021;28;20248;-63
2022/09/29 00:27:44;;;;;;;4.60;2.37;;;9.70;99.90;;;;;;5054918;28;20220;-63
2022/09/29 00:30:12;;;;;;;5.33;2.17;;;9.60;99.90;;;;;;5053243;28;20287;-63
2022/09/29 00:32:39;;;;;;;4.07;2.20;;;9.70;99.90;;;;;;5053283;28;20202;-63
2022/09/29 00:35:08;;;;;;;4.40;2.20;;;9.70;99.90;;;;;;5052870;28;20202;-62
2022/09/29 00:37:35;;;;;;;5.60;2.53;;;9.80;99.90;;;;;;5052892;28;20206;-63
2022/09/29 00:40:02;;;;;;;3.27;2.43;;;9.80;99.90;;;;;;5052750;28;20562;-63
2022/09/29 00:42:31;;;;;;;5.90;2.33;;;9.80;99.90;;;;;;5052985;28;20267;-63
2022/09/29 00:45:05;;;;;;;4.57;2.57;;;9.80;99.90;;;;;;5052347;28;20229;-63
2022/09/29 00:47:36;;;;;;;4.80;2.40;;;9.80;99.90;;;;;;5052658;28;20204;-63
2022/09/29 00:50:09;;;;;;;4.97;2.80;;;9.80;99.90;;;;;;5052609;28;20228;-62
2022/09/29 00:52:41;;;;;;;3.40;2.60;;;9.80;99.90;;;;;;5052841;28;20210;-62
2022/09/29 00:55:14;;;;;;;5.10;2.67;;;9.70;99.90;;;;;;5052229;28;20573;-63
2022/09/29 00:57:46;;;;;;;2.87;2.27;;;9.70;99.90;;;;;;5052532;28;20210;-63
2022/09/29 01:00:14;;;;;;;2.70;2.27;;;9.60;99.90;;;;;;5052730;28;20237;-62
2022/09/29 01:02:45;;;;;;;5.93;2.20;;;9.60;99.90;;;;;;5052210;28;20293;-63
2022/09/29 01:05:15;;;;;;;3.30;2.17;;;9.60;99.90;;;;;;5052198;28;20316;-62
2022/09/29 01:07:44;;;;;;;3.43;2.23;;;9.60;99.90;;;;;;5052576;28;20217;-63
2022/09/29 01:10:13;;;;;;;4.53;2.60;;;9.60;99.90;;;;;;5075164;22;20233;-58
2022/09/29 01:12:39;;;;;;;3.17;2.17;;;9.60;99.90;;;;;;5043102;28;20228;-55
2022/09/29 01:15:07;;;;;;;4.70;2.20;;;9.60;99.90;;;;;;5051600;28;20201;-55
2022/09/29 01:17:34;;;;;;;3.87;2.40;;;9.50;99.90;;;;;;5052356;28;20214;-55
2022/09/29 01:20:12;;;;;;;5.33;2.70;;;9.50;99.90;;;;;;5052296;28;20624;-55
2022/09/29 01:23:09;;;;;;;3.90;2.07;;;9.30;99.90;;;;;;5032551;28;20228;-56
2022/09/29 01:26:01;;;;;;;3.20;2.20;;;9.20;99.90;;;;;;5031494;28;20722;-56
2022/09/29 01:28:47;;;;;;;4.50;2.07;;;9.10;99.90;;;;;;5032353;28;20207;-56
2022/09/29 01:31:22;;;;;;;3.60;2.40;;;9.20;99.90;;;;;;5032238;28;20226;-55
2022/09/29 01:33:58;;;;;;;2.93;2.20;;;9.20;99.90;;;;;;5031532;28;20210;-56
2022/09/29 01:36:32;;;;;;;6.00;2.40;;;9.20;99.90;;;;;;5032395;28;20213;-56
2022/09/29 01:39:10;;;;;;;2.97;2.20;;;9.20;99.90;;;;;;5031992;28;20665;-56
2022/09/29 01:41:43;;;;;;;2.63;2.03;;;9.20;99.90;;;;;;5032184;28;20229;-56
2022/09/29 01:44:18;;;;;;;4.60;2.70;;;9.20;99.90;;;;;;5031727;28;20690;-56
2022/09/29 01:46:50;;;;;;;3.63;2.50;;;9.30;99.90;;;;;;5032235;28;20206;-56
2022/09/29 01:49:19;;;;;;;2.93;2.47;;;9.30;99.90;;;;;;5032062;28;20217;-56
2022/09/29 01:51:52;;;;;;;6.63;2.40;;;9.30;99.90;;;;;;5031923;28;20228;-57
2022/09/29 01:54:22;;;;;;;5.30;2.33;;;9.40;99.90;;;;;;5031184;28;20588;-56
2022/09/29 01:56:53;;;;;;;5.60;2.47;;;9.40;99.90;;;;;;5031790;28;20213;-56
2022/09/29 01:59:24;;;;;;;4.90;2.50;;;9.50;99.90;;;;;;5032142;28;20206;-57
2022/09/29 02:01:58;;;;;;;4.47;2.40;;;9.60;99.90;;;;;;5031920;28;20249;-57
2022/09/29 02:04:29;;;;;;;6.27;2.57;;;9.60;99.90;;;;;;5031729;28;20238;-56
2022/09/29 02:07:01;;;;;;;3.13;2.40;;;9.60;99.90;;;;;;5031705;28;20618;-56
2022/09/29 02:09:33;;;;;;;5.80;3.07;;;9.50;99.90;;;;;;5031630;28;20241;-56
2022/09/29 02:12:02;;;;;;;4.60;2.83;;;9.50;99.90;;;;;;5031548;28;20241;-56
2022/09/29 02:14:32;;;;;;;6.67;3.63;;;9.50;99.90;;;;;;5031330;28;20242;-56
2022/09/29 02:17:05;;;;;;;6.37;3.80;;;9.50;99.90;;;;;;5031733;28;20707;-56
2022/09/29 02:19:36;;;;;;;5.63;3.30;;;9.60;99.90;;;;;;5031858;28;20206;-57
2022/09/29 02:22:03;;;;;;;6.27;3.57;;;9.80;99.90;;;;;;5031885;28;20261;-56
2022/09/29 02:24:31;;;;;;;4.53;3.37;;;9.90;99.90;;;;;;5031167;28;20230;-56
2022/09/29 02:26:58;;;;;;;5.93;3.90;;;10.00;99.90;;;;;;5031817;28;20210;-57
2022/09/29 02:29:26;;;;;;;6.63;3.70;;;9.90;99.90;;;;;;5031680;28;20218;-57
2022/09/29 02:31:53;;;;;;;5.87;2.90;;;9.90;99.90;;;;;;5034796;28;20601;-57
2022/09/29 02:34:22;;;;;;;4.53;3.17;;;9.80;99.90;;;;;;5036035;28;20202;-56
2022/09/29 02:36:58;;;;;;;6.57;2.90;;;9.90;99.90;;;;;;5035311;28;20202;-56
2022/09/29 02:39:40;;;;;;;6.50;2.97;;;9.90;99.90;;;;;;5035603;28;20570;-56
2022/09/29 02:42:17;;;;;;;3.57;2.80;;;10.00;99.90;;;;;;5035380;28;20226;-56
2022/09/29 02:44:57;;;;;;;4.60;2.73;;;10.00;99.90;;;;;;5034509;28;20233;-56
2022/09/29 02:47:41;;;;;;;3.40;2.70;;;10.10;99.90;;;;;;5035326;28;20206;-56
2022/09/29 02:50:26;;;;;;;3.90;2.73;;;10.10;99.90;;;;;;5035206;28;20783;-56
2022/09/29 02:52:59;;;;;;;4.97;2.90;;;10.20;99.90;;;;;;5034950;28;20202;-57
2022/09/29 02:55:35;;;;;;;6.03;2.90;;;10.20;99.90;;;;;;5034602;28;20202;-56
2022/09/29 02:58:07;;;;;;;5.57;3.10;;;10.30;99.90;;;;;;5035668;28;20213;-56
2022/09/29 03:00:34;;;;;;;4.10;2.83;;;10.30;99.90;;;;;;5035582;28;20230;-56
2022/09/29 03:03:01;;;;;;;3.80;2.50;;;10.30;99.90;;;;;;5036235;28;20206;-56
2022/09/29 03:05:30;;;;;;;3.83;2.17;;;10.30;99.90;;;;;;5034678;28;20225;-56
2022/09/29 03:07:56;;;;;;;3.00;2.30;;;10.30;99.90;;;;;;5035442;28;20211;-56
2022/09/29 03:10:23;;;;;;;3.73;2.53;;;10.30;99.90;;;;;;5034888;28;20222;-56
2022/09/29 03:12:50;;;;;;;3.80;2.47;;;10.30;99.90;;;;;;5035167;28;20213;-56
2022/09/29 03:15:17;;;;;;;5.50;2.87;;;10.30;99.90;;;;;;5034379;28;20225;-56
2022/09/29 03:17:44;;;;;;;4.73;2.80;;;10.30;99.90;;;;;;5034852;28;20210;-57
2022/09/29 03:20:11;;;;;;;3.67;2.23;;;10.30;99.90;;;;;;5034716;28;20202;-56
2022/09/29 03:22:39;;;;;;;4.60;2.70;;;10.40;99.90;;;;;;5034633;28;20210;-57
2022/09/29 03:25:07;;;;;;;3.80;2.50;;;10.30;99.90;;;;;;5033902;28;20233;-57
2022/09/29 03:27:35;;;;;;;7.93;3.23;;;10.30;99.90;;;;;;5034478;28;20217;-57
2022/09/29 03:30:02;;;;;;;5.53;2.90;;;10.30;99.90;;;;;;5034430;28;20674;-60
2022/09/29 03:32:29;;;;;;;6.87;2.67;;;10.40;99.90;;;;;;5034273;28;20202;-56
2022/09/29 03:34:56;;;;;;;3.67;2.63;;;10.40;99.90;;;;;;5033954;28;20229;-56
2022/09/29 03:37:23;;;;;;;4.37;2.60;;;10.40;99.90;;;;;;5034119;28;20693;-56
2022/09/29 03:39:51;;;;;;;5.27;2.73;;;10.40;99.90;;;;;;5034245;28;20213;-57
2022/09/29 03:42:18;;;;;;;5.17;2.70;;;10.50;99.90;;;;;;5033834;28;20234;-57
2022/09/29 03:44:45;;;;;;;3.77;2.60;;;10.40;99.90;;;;;;5033624;28;20218;-57
2022/09/29 03:47:11;;;;;;;4.13;2.83;;;10.50;99.90;;;;;;5033849;28;20582;-56
2022/09/29 03:49:38;;;;;;;4.53;3.00;;;10.50;99.90;;;;;;5034295;28;20205;-56
2022/09/29 03:52:06;;;;;;;4.53;2.70;;;10.40;99.90;;;;;;5034091;28;20233;-56
2022/09/29 03:54:33;;;;;;;5.83;2.73;;;10.40;99.90;;;;;;5033579;28;20207;-57
2022/09/29 03:57:01;;;;;;;4.40;3.03;;;10.40;99.90;;;;;;5033909;28;20202;-57
2022/09/29 03:59:28;;;;;;;4.63;2.73;;;10.30;99.90;;;;;;5033851;28;20213;-57
2022/09/29 04:01:55;;;;;;;3.67;2.43;;;10.10;99.90;;;;;;5033643;28;20296;-57
2022/09/29 04:04:21;;;;;;;6.73;2.63;;;10.00;99.90;;;;;;5033152;28;20629;-57
2022/09/29 04:06:48;;;;;;;7.37;2.83;;;9.90;99.90;;;;;;5033961;28;20274;-57
2022/09/29 04:09:15;;;;;;;3.87;2.73;;;9.80;99.90;;;;;;5033764;28;20202;-57
2022/09/29 04:11:42;;;;;;;3.97;2.90;;;9.70;99.90;;;;;;5033487;28;20264;-56
2022/09/29 04:14:10;;;;;;;3.57;2.90;;;9.60;99.90;;;;;;5032744;28;20613;-56
2022/09/29 04:16:36;;;;;;;7.63;3.60;;;9.50;99.90;;;;;;5033481;28;20221;-55
2022/09/29 04:19:03;;;;;;;6.60;3.20;;;9.50;99.90;;;;;;5033617;28;20221;-56
2022/09/29 04:21:30;;;;;;;3.90;2.87;;;9.40;99.90;;;;;;5033559;28;20329;-56
2022/09/29 04:23:57;;;;;;;5.27;3.27;;;9.40;99.90;;;;;;5032859;28;20214;-56
2022/09/29 04:26:24;;;;;;;9.13;3.30;;;9.30;99.90;;;;;;5033312;28;20222;-56
2022/09/29 04:28:50;;;;;;;6.83;3.10;;;9.30;99.90;;;;;;5033343;28;20206;-56
2022/09/29 04:31:18;;;;;;;3.70;2.70;;;9.30;99.90;;;;;;5033207;28;20230;-56
2022/09/29 04:33:45;;;;;;;4.93;3.00;;;9.20;99.90;;;;;;5033740;28;20214;-56
2022/09/29 04:36:12;;;;;;;5.57;3.87;;;9.10;99.90;;;;;;5032621;28;20206;-57
2022/09/29 04:38:38;;;;;;;4.77;3.40;;;9.10;99.90;;;;;;5033205;28;20249;-55
2022/09/29 04:41:05;;;;;;;6.27;3.27;;;9.00;99.90;;;;;;5033136;28;20230;-56
2022/09/29 04:43:32;;;;;;;3.60;3.00;;;9.00;99.90;;;;;;5032994;28;20701;-56
2022/09/29 04:46:04;;;;;;;3.63;3.17;;;9.00;99.90;;;;;;5032178;28;20249;-57
2022/09/29 04:48:32;;;;;;;3.33;2.77;;;8.90;99.90;;;;;;5033192;28;20210;-57
2022/09/29 04:50:59;;;;;;;4.33;2.87;;;8.80;99.90;;;;;;5032588;28;20233;-56
2022/09/29 04:53:26;;;;;;;5.33;3.10;;;8.80;99.90;;;;;;5032768;28;20203;-57
2022/09/29 04:55:53;;;;;;;4.90;3.13;;;8.70;99.90;;;;;;5032150;28;20214;-57
2022/09/29 04:58:20;;;;;;;8.47;3.03;;;8.60;99.90;;;;;;5033191;28;20210;-57
2022/09/29 05:00:46;;;;;;;3.03;2.57;;;8.40;99.90;;;;;;5032792;28;20230;-57
2022/09/29 05:03:13;;;;;;;3.80;2.80;;;8.30;99.90;;;;;;5032797;28;20202;-57
2022/09/29 05:05:41;;;;;;;8.03;2.90;;;8.20;99.90;;;;;;5031817;28;20222;-57
2022/09/29 05:08:08;;;;;;;6.40;3.00;;;8.10;99.90;;;;;;5033198;28;20253;-57
2022/09/29 05:10:35;;;;;;;5.03;2.73;;;8.10;99.90;;;;;;5032298;28;20234;-57
2022/09/29 05:13:01;;;;;;;9.30;4.00;;;8.20;99.90;;;;;;5032557;28;20217;-57
2022/09/29 05:15:28;;;;;;;3.77;2.80;;;8.40;99.90;;;;;;5031902;28;20213;-56
2022/09/29 05:17:55;;;;;;;6.33;2.83;;;8.50;99.90;;;;;;5032465;28;20214;-56
2022/09/29 05:20:21;;;;;;;5.30;2.90;;;8.50;99.90;;;;;;5032681;28;20206;-57
2022/09/29 05:22:49;;;;;;;7.27;3.37;;;8.50;99.90;;;;;;5032235;28;20202;-57
2022/09/29 05:25:16;;;;;;;3.77;3.27;;;8.50;99.90;;;;;;5031918;28;20234;-57
2022/09/29 05:27:43;;;;;;;5.87;3.27;;;8.70;99.90;;;;;;5032461;28;20210;-58
2022/09/29 05:30:10;;;;;;;4.60;3.10;;;8.70;99.90;;;;;;5032313;28;20210;-56
2022/09/29 05:32:37;;;;;;;6.77;3.30;;;8.60;99.90;;;;;;5032016;28;20210;-56
2022/09/29 05:35:05;;;;;;;7.67;4.37;;;8.70;99.90;;;;;;5031133;28;20210;-58
2022/09/29 05:37:31;;;;;;;5.00;3.10;;;8.70;99.90;;;;;;5031689;28;20213;-56
2022/09/29 05:39:59;;;;;;;5.60;3.00;;;8.70;99.90;;;;;;5031876;28;20233;-56
2022/09/29 05:42:26;;;;;;;6.60;3.00;;;8.60;99.90;;;;;;5031795;28;20230;-58
2022/09/29 05:44:53;;;;;;;4.70;2.97;;;8.50;99.90;;;;;;5031422;28;20591;-56
2022/09/29 05:47:20;;;;;;;4.80;3.03;;;8.50;99.90;;;;;;5031890;28;20229;-56
2022/09/29 05:49:46;;;;;;;6.70;3.33;;;8.60;99.90;;;;;;5031927;28;20203;-56
2022/09/29 05:52:13;;;;;;;5.30;2.93;;;8.70;99.90;;;;;;5031821;28;20238;-55
2022/09/29 05:54:40;;;;;;;4.90;3.30;;;8.90;99.90;;;;;;5031408;28;20202;-56
2022/09/29 05:57:08;;;;;;;6.43;3.97;;;8.90;99.90;;;;;;5031937;28;20206;-56
2022/09/29 05:59:34;;;;;;;5.27;3.93;;;9.10;99.90;;;;;;5031838;28;20210;-57
2022/09/29 06:02:01;;;;;;;5.47;3.40;;;9.20;99.90;;;;;;5031658;28;20234;-56
2022/09/29 06:04:28;;;;;;;6.27;2.90;;;9.40;99.90;;;;;;5031064;28;20736;-56
2022/09/29 06:06:56;;;;;;;4.30;3.00;;;9.40;99.90;;;;;;5034493;28;20230;-56
2022/09/29 06:09:22;;;;;;;6.83;2.90;;;9.40;99.90;;;;;;5035962;28;20305;-57
2022/09/29 06:11:49;;;;;;;3.80;2.73;;;9.30;99.90;;;;;;5035729;28;20238;-57
2022/09/29 06:14:17;;;;;;;6.70;2.80;;;9.30;99.90;;;;;;5035309;28;20214;-57
2022/09/29 06:16:44;;;;;;;4.83;2.53;;;9.40;99.90;;;;;;5035772;28;20202;-57
2022/09/29 06:19:12;;;;;;;5.40;2.90;;;9.40;99.90;;;;;;5035473;28;20297;-56
2022/09/29 06:21:39;;;;;;;4.23;2.63;;;9.50;99.90;;;;;;5035676;28;20234;-56
2022/09/29 06:24:07;;;;;;;5.30;3.50;;;9.70;99.90;;;;;;5035266;28;20275;-56
2022/09/29 06:26:34;;;;;;;3.93;3.07;;;9.80;99.90;;;;;;5035512;28;20230;-57
2022/09/29 06:29:01;;;;;;;5.43;3.03;;;9.90;99.90;;;;;;5035679;28;20233;-57
2022/09/29 06:31:30;;;;;;;3.37;2.60;;;10.00;99.90;;;;;;5035345;28;20226;-57
2022/09/29 06:33:58;;;;;;;4.57;3.00;;;10.10;99.90;;;;;;5035414;28;20260;-56
2022/09/29 06:39:13;;;;;;;6.87;2.60;;;10.40;99.90;;;;;;5035433;28;20209;-56
2022/09/29 06:41:40;;;;;;;6.40;3.50;;;10.50;99.90;;;;;;5035111;28;20575;-56
2022/09/29 06:44:07;;;;;;;4.57;3.13;;;10.50;99.90;;;;;;5035163;28;20206;-55
2022/09/29 06:46:35;;;;;;;6.70;3.00;;;10.60;99.90;;;;;;5035079;28;20258;-57
2022/09/29 06:49:03;;;;;;;4.50;3.00;;;10.60;99.90;;;;;;5035120;28;20550;-57
2022/09/29 06:51:29;;;;;;;4.63;3.20;;;10.70;99.90;;;;;;5035180;28;20615;-57
2022/09/29 06:53:56;;;;;;;3.87;2.70;;;10.90;99.90;;;;;;5035222;28;20209;-57
2022/09/29 06:56:23;;;;;;;3.70;2.87;;;11.00;99.90;;;;;;5034376;28;20257;-57
2022/09/29 06:58:50;;;;;;;5.57;3.10;;;11.20;99.90;;;;;;5035073;28;20213;-57
2022/09/29 07:01:17;;;;;;;6.50;2.87;;;11.40;99.90;;;;;;5035585;28;20230;-57
2022/09/29 07:03:45;;;;;;;6.63;3.83;;;11.40;99.90;;;;;;5035203;28;20206;-57
2022/09/29 07:06:12;;;;;;;6.57;2.87;;;11.50;99.90;;;;;;5034183;28;20228;-59
2022/09/29 07:08:39;;;;;;;6.27;3.03;;;11.70;99.90;;;;;;5034895;28;20225;-58
2022/09/29 07:11:06;;;;;;;3.53;2.73;;;11.70;99.90;;;;;;5035031;28;20238;-55
2022/09/29 07:13:33;;;;;;;6.10;3.00;;;12.00;99.90;;;;;;5035486;28;20214;-56
2022/09/29 07:16:06;;;;;;;3.83;2.30;;;12.20;99.90;;;;;;5034219;28;20681;-57
2022/09/29 07:18:34;;;;;;;14.43;8.93;;;12.60;99.90;;;;;;5034695;28;20568;-60
2022/09/29 07:21:02;;;;;;;5.37;2.33;;;12.90;99.90;;;;;;5034719;28;20583;-56
2022/09/29 07:23:29;;;;;;;4.47;2.40;;;13.10;99.90;;;;;;5034829;28;20348;-56
2022/09/29 07:25:56;;;;;;;5.33;2.53;;;13.10;99.90;;;;;;5033648;28;20226;-57
2022/09/29 07:28:23;;;;;;;3.87;2.33;;;13.20;99.90;;;;;;5034860;28;20206;-57
2022/09/29 07:30:59;;;;;;;6.87;2.33;;;13.10;99.90;;;;;;5034890;28;20729;-58
2022/09/29 07:33:26;;;;;;;3.17;2.40;;;13.00;99.90;;;;;;5034580;28;20673;-58
2022/09/29 07:35:53;;;;;;;4.50;2.80;;;13.10;99.90;;;;;;5034020;28;20586;-58
2022/09/29 07:38:21;;;;;;;4.00;2.30;;;13.10;99.90;;;;;;5034381;28;20678;-59
2022/09/29 07:40:48;;;;;;;3.80;2.27;;;13.20;99.90;;;;;;5034501;28;20231;-58
2022/09/29 07:43:15;;;;;;;2.83;2.03;;;13.20;99.90;;;;;;5034634;28;20214;-58
2022/09/29 07:45:47;;;;;;;5.57;2.33;;;13.30;99.90;;;;;;5034022;28;20233;-57
2022/09/29 07:48:14;;;;;;;3.90;2.30;;;13.40;99.90;;;;;;5034600;28;20206;-57
2022/09/29 07:50:41;;;;;;;5.77;2.20;;;13.50;99.90;;;;;;5034201;28;20223;-58
2022/09/29 07:53:07;;;;;;;2.77;2.30;;;13.50;99.90;;;;;;5034274;28;20240;-57
2022/09/29 07:55:35;;;;;;;2.83;2.10;;;13.60;99.90;;;;;;5033700;28;20225;-57
2022/09/29 07:58:02;;;;;;;4.00;2.30;;;13.60;99.90;;;;;;5034251;28;20206;-57
2022/09/29 08:00:30;;;;;;;4.07;2.23;;;13.70;99.90;;;;;;5033984;28;20226;-58
2022/09/29 08:03:01;;;;;;;4.97;2.30;;;13.80;99.90;;;;;;5033963;28;20249;-57
2022/09/29 08:05:28;;;;;;;2.77;2.27;;;14.00;99.90;;;;;;5033274;28;20241;-57
2022/09/29 08:07:55;;;;;;;3.97;2.30;;;14.20;99.90;;;;;;5033912;28;20226;-57
2022/09/29 08:10:21;;;;;;;2.77;2.03;;;14.40;99.90;;;;;;5033610;28;20576;-56
2022/09/29 08:12:50;;;;;;;5.43;2.60;;;14.40;99.90;;;;;;5033978;28;20549;-56
2022/09/29 08:15:17;;;;;;;4.17;1.87;;;14.60;99.90;;;;;;5033243;28;20693;-56
2022/09/29 08:17:43;;;;;;;3.83;2.00;;;14.80;99.90;;;;;;5033449;28;20214;-55
2022/09/29 08:20:10;;;;;;;3.03;1.97;;;15.10;99.90;;;;;;5033325;28;20210;-57
2022/09/29 08:22:37;;;;;;;4.67;1.93;;;15.40;99.90;;;;;;5033479;28;20579;-55
2022/09/29 08:25:04;;;;;;;5.27;2.40;;;15.70;99.90;;;;;;5033413;28;20213;-55
2022/09/29 08:27:31;;;;;;;2.47;2.00;;;16.00;99.90;;;;;;5033459;28;20233;-56
2022/09/29 08:29:59;;;;;;;3.13;2.30;;;15.80;99.90;;;;;;5032863;28;20576;-55
2022/09/29 08:32:26;;;;;;;3.77;2.00;;;15.80;99.90;;;;;;5033345;28;20230;-54
2022/09/29 08:34:53;;;;;;;3.20;2.10;;;15.90;99.90;;;;;;5032883;28;20712;-54
2022/09/29 08:37:19;;;;;;;3.23;2.20;;;16.10;99.90;;;;;;5033438;28;20202;-55
2022/09/29 08:39:46;;;;;;;8.03;2.50;;;16.40;99.90;;;;;;5033646;28;20207;-56
2022/09/29 08:42:25;;;;;;;5.07;1.90;;;16.30;99.90;;;;;;5033362;28;20237;-55
2022/09/29 08:44:57;;;;;;;3.53;2.20;;;16.00;99.90;;;;;;5032557;28;20666;-55
2022/09/29 08:47:29;;;;;;;5.47;2.77;;;15.90;99.90;;;;;;5033071;28;20225;-54
2022/09/29 08:50:01;;;;;;;4.07;2.60;;;15.80;99.90;;;;;;5033036;28;20506;-54
2022/09/29 08:52:31;;;;;;;4.47;2.63;;;15.80;99.90;;;;;;5033005;28;20581;-54
2022/09/29 08:55:02;;;;;;;3.53;2.20;;;15.70;99.90;;;;;;5032256;28;20214;-55
2022/09/29 08:57:30;;;;;;;3.47;1.87;;;15.60;99.90;;;;;;5032544;28;20208;-57
2022/09/29 08:59:58;;;;;;;4.00;1.93;;;15.40;99.90;;;;;;5033016;28;20206;-56
2022/09/29 09:03:00;;;;;;;2.63;1.80;;;15.20;99.90;;;;;;5032604;28;20575;-55
2022/09/29 09:05:55;;;;;;;2.83;1.57;;;15.40;99.90;;;;;;5010255;28;20206;-54
2022/09/29 09:08:36;;;;;;;3.90;1.83;;;15.70;99.90;;;;;;5032587;28;20698;-55
2022/09/29 09:11:15;;;;;;;5.87;1.93;;;15.80;99.90;;;;;;5032512;28;20245;-55
2022/09/29 09:13:56;;;;;;;2.93;1.70;;;15.60;99.90;;;;;;5032734;28;20268;-56
2022/09/29 09:16:31;;;;;;;3.30;1.60;;;15.70;99.90;;;;;;5031804;28;20221;-55
2022/09/29 09:19:11;;;;;;;4.50;2.10;;;15.60;99.90;;;;;;5032644;28;20578;-56
2022/09/29 09:21:42;;;;;;;4.83;2.20;;;15.70;99.90;;;;;;5032690;28;20612;-55
2022/09/29 09:24:15;;;;;;;4.43;1.87;;;15.70;99.90;;;;;;5032365;28;20670;-56
2022/09/29 09:26:44;;;;;;;6.30;2.00;;;15.80;99.90;;;;;;5031606;28;20230;-55
2022/09/29 09:29:18;;;;;;;4.93;1.83;;;16.10;99.90;;;;;;5032487;28;20217;-55
2022/09/29 09:31:50;;;;;;;3.23;1.93;;;16.10;99.90;;;;;;5032234;28;20234;-56
2022/09/29 09:34:22;;;;;;;4.68;1.67;;;16.30;99.90;;;;;;5032496;28;20239;-55
2022/09/29 09:36:54;;;;;;;2.57;1.80;;;16.60;99.90;;;;;;5031851;28;20210;-55
2022/09/29 09:39:25;;;;;;;5.63;2.38;;;17.00;99.90;;;;;;5031921;28;20210;-55
2022/09/29 09:41:55;;;;;;;2.00;1.50;;;17.40;99.90;;;;;;5032216;28;20236;-56
2022/09/29 09:44:26;;;;;;;4.63;3.35;;;17.70;99.90;;;;;;5032644;28;20288;-55
2022/09/29 09:46:56;;;;;;;4.07;1.80;;;18.10;99.90;;;;;;5032167;28;20222;-55
2022/09/29 09:49:30;;;;;;;3.22;1.63;;;18.20;99.90;;;;;;5032218;28;20674;-57
2022/09/29 09:52:03;;;;;;;4.55;1.95;;;18.30;99.90;;;;;;5032149;28;20257;-56
2022/09/29 09:54:35;;;;;;;3.22;1.70;;;18.50;99.90;;;;;;5031479;28;20210;-57
2022/09/29 09:57:44;;;;;;;2.58;2.08;;;18.60;99.90;;;;;;5031922;28;20709;-57
2022/09/29 10:00:13;;;;;;;2.45;1.80;;;18.80;99.90;;;;;;5011459;28;20213;-57
2022/09/29 10:02:45;;;;;;;2.50;1.85;;;19.00;99.90;;;;;;5032206;28;20238;-57
2022/09/29 10:05:15;;;;;;;4.38;1.67;;;19.10;99.90;;;;;;5031451;28;20210;-58
2022/09/29 10:07:42;;;;;;;12.88;10.07;;;19.10;99.90;;;;;;5031841;28;20222;-58
2022/09/29 10:10:17;;;;;;;4.85;2.40;;;18.80;99.90;;;;;;5031602;28;20206;-56
2022/09/29 10:12:44;;;;;;;2.80;1.90;;;18.80;99.90;;;;;;5031900;28;20220;-57
2022/09/29 10:15:20;;;;;;;2.90;1.98;;;18.90;99.90;;;;;;5031198;28;20248;-57
2022/09/29 10:17:50;;;;;;;5.03;2.30;;;18.70;99.90;;;;;;5031833;28;20671;-57
2022/09/29 10:20:33;;;;;;;6.75;2.05;;;18.60;99.90;;;;;;5032036;28;20206;-58
2022/09/29 10:23:20;;;;;;;4.00;2.05;;;18.80;99.90;;;;;;5031635;28;20548;-55
2022/09/29 10:25:53;;;;;;;3.30;1.88;;;19.10;99.90;;;;;;5031152;28;20210;-57
2022/09/29 10:28:21;;;;;;;4.10;1.77;;;19.30;99.90;;;;;;5031738;28;20230;-55
2022/09/29 10:30:48;;;;;;;4.18;1.90;;;19.30;99.90;;;;;;5031770;28;20229;-53
2022/09/29 10:33:18;;;;;;;4.10;2.00;;;19.40;99.90;;;;;;5031591;28;20233;-54
2022/09/29 10:35:51;;;;;;;2.55;1.95;;;19.30;99.90;;;;;;5031326;28;20209;-55
2022/09/29 10:38:23;;;;;;;3.83;1.90;;;19.30;99.90;;;;;;5031596;28;20202;-55
2022/09/29 10:40:56;;;;;;;1.95;1.42;;;19.40;99.90;;;;;;5031528;28;20230;-56
2022/09/29 10:43:25;;;;;;;2.40;1.45;;;19.60;99.90;;;;;;5031488;28;20210;-54
2022/09/29 10:45:57;;;;;;;3.00;1.80;;;19.80;99.90;;;;;;5030877;28;20217;-54
2022/09/29 10:48:25;;;;;;;3.55;2.03;;;20.00;99.90;;;;;;5031686;28;20230;-55
2022/09/29 10:50:55;;;;;;;3.47;1.70;;;19.90;99.90;;;;;;5031576;28;20285;-55
2022/09/29 10:53:28;;;;;;;3.65;1.83;;;19.90;99.90;;;;;;5034737;28;20221;-55
2022/09/29 10:55:56;;;;;;;2.63;1.77;;;19.90;99.90;;;;;;5034769;28;20206;-55
2022/09/29 10:58:28;;;;;;;3.40;2.05;;;19.80;99.90;;;;;;5035198;28;20199;-54
2022/09/29 11:01:06;;;;;;;3.55;1.90;;;19.40;99.90;;;;;;5035049;28;20702;-54
2022/09/29 11:03:35;;;;;;;3.83;1.92;;;19.50;99.90;;;;;;5035523;28;20210;-54
2022/09/29 11:06:06;;;;;;;3.03;1.60;;;19.70;99.90;;;;;;5034492;28;20210;-55
2022/09/29 11:08:33;;;;;;;3.03;2.00;;;20.00;99.90;;;;;;5035171;28;20226;-55
2022/09/29 11:11:05;;;;;;;3.85;1.33;;;20.30;99.90;;;;;;5034888;28;20451;-56
2022/09/29 11:13:37;;;;;;;5.88;2.50;;;20.20;99.90;;;;;;5035404;28;20209;-56
2022/09/29 11:16:12;;;;;;;4.07;2.08;;;20.00;99.90;;;;;;5034485;28;20690;-56
2022/09/29 11:18:40;;;;;;;3.17;1.55;;;20.20;99.90;;;;;;5035287;28;20202;-55
2022/09/29 11:21:27;;;;;;;5.20;1.63;;;20.50;99.90;;;;;;5035140;28;20226;-56
2022/09/29 11:24:01;;;;;;;5.32;1.88;;;20.60;99.90;;;;;;5035862;28;20225;-55
2022/09/29 11:26:32;;;;;;;2.55;1.50;;;20.80;99.90;;;;;;5034431;28;20210;-55
2022/09/29 11:29:14;;;;;;;2.75;1.67;;;21.00;99.60;;;;;;5035322;28;20697;-55
2022/09/29 11:31:59;;;;;;;2.90;1.90;;;21.20;98.20;;;;;;4997634;28;20305;-56
2022/09/29 11:35:04;;;;;;;3.70;1.83;;;21.30;97.70;;;;;;5012379;28;20210;-55
2022/09/29 11:37:47;;;;;;;2.88;1.55;;;21.20;97.30;;;;;;5013820;28;20209;-55
2022/09/29 11:40:25;;;;;;;5.63;2.58;;;21.20;97.40;;;;;;5013269;28;20241;-55
2022/09/29 11:43:06;;;;;;;2.15;1.40;;;21.20;96.80;;;;;;5013481;28;20203;-56
2022/09/29 11:45:40;;;;;;;2.95;1.20;;;21.20;95.60;;;;;;5012649;28;20207;-56
2022/09/29 11:48:45;;;;;;;2.90;1.75;;;21.30;95.20;;;;;;5013415;28;20222;-56
2022/09/29 11:51:20;;;;;;;3.47;1.50;;;21.30;95.50;;;;;;5012930;28;20235;-58
2022/09/29 11:54:07;;;;;;;5.07;1.60;;;21.50;94.90;;;;;;5013580;28;20206;-58
2022/09/29 11:56:40;;;;;;;5.22;1.65;;;21.50;94.00;;;;;;5013119;28;20207;-58
2022/09/29 11:59:26;;;;;;;2.95;1.80;;;21.30;94.70;;;;;;5015125;28;20210;-55
2022/09/29 12:02:17;;;;;;;3.60;1.50;;;21.30;94.90;;;;;;5014470;28;20234;-56
2022/09/29 12:04:54;;;;;;;4.15;1.40;;;21.30;93.90;;;;;;5013693;28;20682;-55
2022/09/29 12:07:33;;;;;;;2.47;1.23;;;21.30;93.80;;;;;;5014946;28;20233;-56
2022/09/29 12:10:25;;;;;;;4.05;1.77;;;21.40;93.80;;;;;;5014730;28;20215;-58
2022/09/29 12:12:59;;;;;;;5.80;2.00;;;21.50;93.80;;;;;;5014785;28;20242;-56
2022/09/29 12:15:37;;;;;;;4.32;1.40;;;21.70;93.90;;;;;;5017273;28;20210;-55
2022/09/29 12:18:13;;;;;;;3.17;1.60;;;21.80;93.50;;;;;;5016194;28;20289;-55
2022/09/29 12:20:44;;;;;;;5.47;1.58;;;21.80;92.70;;;;;;5015599;28;20780;-54
2022/09/29 12:23:14;;;;;;;2.50;1.25;;;21.50;92.80;;;;;;5014048;28;20210;-56
2022/09/29 12:25:51;;;;;;;2.55;1.10;;;21.00;92.80;;;;;;5014395;28;20222;-55
2022/09/29 12:28:23;;;;;;;2.83;1.20;;;20.50;92.60;;;;;;5014201;28;20285;-57
2022/09/29 12:30:55;;;;;;;2.20;1.00;;;20.20;91.80;;;;;;5013973;28;20273;-55
2022/09/29 12:33:26;;;;;;;3.63;1.20;;;20.30;92.10;;;;;;5013828;28;20211;-57
2022/09/29 12:36:42;;;;;;;2.33;1.30;;;20.50;92.10;;;;;;5013006;28;20207;-55
2022/09/29 12:39:00;;;;;;;3.25;1.27;;;20.40;91.60;;;;;;5014173;28;20217;-56
2022/09/29 12:41:32;;;;;;;3.85;1.30;;;20.10;91.50;;;;;;5015126;28;20231;-56
2022/09/29 12:44:06;;;;;;;5.00;3.45;;;19.60;92.60;;;;;;5014380;28;20663;-56
2022/09/29 12:46:36;;;;;;;2.03;1.05;;;19.30;93.20;;;;;;5015067;28;20206;-55
2022/09/29 12:49:11;;;;;;;2.58;1.15;;;19.20;92.90;;;;;;5014773;28;20231;-56
2022/09/29 12:51:42;;;;;;;2.10;1.10;;;19.10;92.90;;;;;;5014633;28;20233;-56
2022/09/29 12:54:16;;;;;;;3.60;1.60;;;19.10;92.90;;;;;;5014073;28;20211;-58
2022/09/29 12:56:49;;;;;;;2.53;1.02;;;18.80;94.10;;;;;;5012695;28;20218;-58
2022/09/29 12:59:27;;;;;;;1.85;1.17;;;18.50;94.40;;;;;;5012948;28;20213;-59
2022/09/29 13:01:56;;;;;;;1.67;0.93;;;18.20;94.70;;;;;;5013124;28;20230;-60
2022/09/29 13:05:03;;;;;;;3.05;1.42;;;18.20;94.90;;;;;;5013229;28;20217;-59
2022/09/29 13:08:05;;;;;;;3.03;1.08;;;18.50;94.50;;;;;;5012064;28;20219;-54
2022/09/29 13:10:57;;;;;;;3.38;1.38;;;18.60;94.40;;;;;;5029637;22;20296;-57
2022/09/29 13:14:00;;;;;;;5.95;1.80;;;18.70;94.40;;;;;;5032067;28;20305;-58